createdAt,value
2019-01-12T00:00:48.590Z,3.90
2019-01-12T00:03:18.496Z,7.60
2019-01-12T00:05:48.400Z,4.03
2019-01-12T00:08:18.403Z,10.37
2019-01-12T00:10:48.281Z,3.47
2019-01-12T00:13:18.205Z,6.43
2019-01-12T00:15:48.912Z,5.43
2019-01-12T00:18:18.778Z,6.43
2019-01-12T00:20:48.658Z,8.80
2019-01-12T00:23:18.740Z,6.83
2019-01-12T00:25:48.629Z,4.10
2019-01-12T00:28:18.786Z,5.97
2019-01-12T00:30:49.415Z,5.70
2019-01-12T00:33:19.295Z,8.30
2019-01-12T00:35:49.416Z,8.00
2019-01-12T00:38:19.593Z,5.97
2019-01-12T00:40:49.527Z,5.80
2019-01-12T00:43:19.466Z,8.40
2019-01-12T00:45:49.635Z,9.93
2019-01-12T00:48:19.518Z,8.70
2019-01-12T00:50:49.434Z,8.30
2019-01-12T00:53:19.432Z,6.67
2019-01-12T00:55:49.664Z,5.03
2019-01-12T00:58:19.544Z,6.23
2019-01-12T01:00:50.266Z,5.03
2019-01-12T01:03:20.277Z,3.67
2019-01-12T01:05:50.285Z,4.03
2019-01-12T01:08:20.705Z,9.23
2019-01-12T01:10:50.589Z,4.53
2019-01-12T01:13:20.504Z,12.93
2019-01-12T01:15:51.179Z,3.93
2019-01-12T01:18:21.003Z,4.83
2019-01-12T01:20:51.008Z,7.93
2019-01-12T01:23:21.439Z,11.70
2019-01-12T01:25:51.310Z,6.23
2019-01-12T01:28:21.212Z,7.60
2019-01-12T01:30:51.487Z,4.90
2019-01-12T01:33:27.672Z,5.67
2019-01-12T01:35:53.153Z,6.73
2019-01-12T01:38:24.221Z,7.17
2019-01-12T01:40:54.316Z,4.23
2019-01-12T01:43:24.306Z,3.10
2019-01-12T01:45:54.625Z,7.43
2019-01-12T01:48:24.906Z,8.77
2019-01-12T01:50:54.765Z,3.20
2019-01-12T01:53:24.716Z,6.20
2019-01-12T01:55:54.964Z,2.70
2019-01-12T01:58:24.821Z,1.63
2019-01-12T02:00:55.028Z,5.67
2019-01-12T02:03:25.202Z,3.33
2019-01-12T02:05:55.076Z,2.93
2019-01-12T02:08:24.972Z,4.30
2019-01-12T02:10:55.050Z,6.30
2019-01-12T02:13:24.949Z,8.03
2019-01-12T02:15:55.203Z,5.73
2019-01-12T02:18:25.545Z,5.77
2019-01-12T02:20:55.442Z,5.70
2019-01-12T02:23:25.400Z,7.63
2019-01-12T02:25:55.566Z,5.87
2019-01-12T02:28:25.751Z,5.40
2019-01-12T02:30:56.210Z,7.80
2019-01-12T02:33:26.070Z,8.67
2019-01-12T02:35:55.945Z,4.00
2019-01-12T02:38:26.311Z,2.93
2019-01-12T02:40:56.289Z,6.80
2019-01-12T02:43:26.179Z,5.33
2019-01-12T02:45:56.840Z,7.23
2019-01-12T02:48:26.767Z,4.83
2019-01-12T02:50:56.664Z,4.20
2019-01-12T02:53:27.000Z,6.93
2019-01-12T02:55:56.843Z,4.73
2019-01-12T02:58:26.759Z,4.47
2019-01-12T03:00:57.449Z,4.57
2019-01-12T03:03:27.454Z,8.87
2019-01-12T03:05:57.456Z,2.90
2019-01-12T03:08:27.888Z,4.10
2019-01-12T03:10:58.002Z,6.30
2019-01-12T03:13:27.884Z,4.80
2019-01-12T03:15:58.591Z,6.23
2019-01-12T03:18:28.485Z,6.23
2019-01-12T03:20:58.362Z,3.83
2019-01-12T03:23:28.633Z,5.90
2019-01-12T03:25:58.514Z,6.80
2019-01-12T03:28:28.389Z,6.70
2019-01-12T03:30:58.993Z,6.00
2019-01-12T03:33:29.085Z,11.20
2019-01-12T03:35:59.014Z,11.17
2019-01-12T03:38:29.263Z,5.87
2019-01-12T03:40:59.367Z,8.70
2019-01-12T03:43:29.276Z,7.60
2019-01-12T03:46:00.123Z,3.97
2019-01-12T03:48:30.111Z,7.67
2019-01-12T03:51:00.001Z,7.03
2019-01-12T03:53:30.209Z,6.07
2019-01-12T03:56:00.083Z,4.77
2019-01-12T03:58:29.976Z,4.67
2019-01-12T04:01:00.948Z,4.10
2019-01-12T04:03:30.829Z,7.07
2019-01-12T04:06:00.720Z,4.30
2019-01-12T04:08:31.189Z,8.03
2019-01-12T04:11:01.122Z,3.53
2019-01-12T04:13:30.980Z,8.70
2019-01-12T04:16:01.172Z,4.30
2019-01-12T04:18:31.076Z,10.63
2019-01-12T04:21:00.942Z,10.37
2019-01-12T04:23:31.241Z,8.07
2019-01-12T04:26:01.124Z,3.50
2019-01-12T04:28:30.998Z,12.27
2019-01-12T04:31:01.399Z,8.03
2019-01-12T04:33:31.726Z,5.33
2019-01-12T04:36:01.588Z,4.30
2019-01-12T04:38:31.843Z,6.70
2019-01-12T04:41:01.707Z,1.60
2019-01-12T04:43:31.580Z,5.67
2019-01-12T04:46:02.018Z,5.23
2019-01-12T04:48:32.300Z,5.83
2019-01-12T04:51:02.144Z,4.37
2019-01-12T04:53:32.462Z,8.37
2019-01-12T04:56:02.350Z,2.93
2019-01-12T04:58:32.206Z,8.57
2019-01-12T05:01:02.514Z,6.57
2019-01-12T05:03:32.692Z,4.20
2019-01-12T05:06:02.547Z,7.03
2019-01-12T05:08:32.875Z,7.00
2019-01-12T05:11:02.836Z,7.00
2019-01-12T05:13:32.710Z,3.03
2019-01-12T05:16:02.932Z,6.00
2019-01-12T05:18:33.131Z,9.23
2019-01-12T05:21:02.986Z,10.03
2019-01-12T05:23:33.311Z,3.60
2019-01-12T05:26:03.182Z,9.00
2019-01-12T05:28:33.034Z,6.53
2019-01-12T05:31:03.149Z,5.47
2019-01-12T05:33:33.466Z,9.40
2019-01-12T05:36:03.335Z,2.40
2019-01-12T05:38:33.267Z,14.60
2019-01-12T05:41:03.330Z,4.47
2019-01-12T05:43:33.297Z,1.90
2019-01-12T05:46:03.185Z,10.13
2019-01-12T05:48:33.582Z,1.67
2019-01-12T05:51:04.100Z,8.27
2019-01-12T05:53:34.226Z,3.97
2019-01-12T05:56:04.187Z,1.73
2019-01-12T05:58:34.089Z,3.50
2019-01-12T06:01:04.477Z,9.10
2019-01-12T06:03:34.355Z,5.00
2019-01-12T06:06:04.404Z,7.57
2019-01-12T06:08:34.638Z,7.80
2019-01-12T06:11:04.529Z,3.67
2019-01-12T06:13:34.383Z,3.60
2019-01-12T06:16:04.816Z,6.23
2019-01-12T06:18:34.722Z,3.77
2019-01-12T06:21:05.411Z,6.03
2019-01-12T06:23:35.381Z,2.57
2019-01-12T06:26:05.338Z,15.03
2019-01-12T06:28:35.368Z,3.30
2019-01-12T06:31:05.378Z,11.30
2019-01-12T06:33:35.312Z,11.37
2019-01-12T06:36:05.858Z,12.17
2019-01-12T06:38:35.742Z,3.43
2019-01-12T06:41:05.737Z,9.90
2019-01-12T06:43:36.222Z,11.70
2019-01-12T06:46:06.134Z,4.07
2019-01-12T06:48:36.078Z,5.27
2019-01-12T06:51:06.478Z,8.37
2019-01-12T06:53:36.409Z,3.80
2019-01-12T06:56:10.791Z,2.47
2019-01-12T06:58:38.186Z,1.50
2019-01-12T07:01:08.103Z,24.53
2019-01-12T07:03:37.990Z,19.47
2019-01-12T07:06:08.226Z,5.63
2019-01-12T07:08:38.154Z,14.70
2019-01-12T07:11:08.003Z,7.43
2019-01-12T07:13:38.268Z,6.33
2019-01-12T07:16:08.213Z,6.37
2019-01-12T07:18:38.084Z,5.03
2019-01-12T07:21:08.244Z,8.47
2019-01-12T07:23:38.202Z,15.33
2019-01-12T07:26:08.079Z,7.50
2019-01-12T07:28:38.783Z,6.97
2019-01-12T07:31:08.685Z,5.10
2019-01-12T07:33:39.638Z,14.10
2019-01-12T07:36:09.980Z,13.57
2019-01-12T07:38:39.931Z,9.37
2019-01-12T07:41:09.928Z,9.53
2019-01-12T07:43:40.220Z,14.60
2019-01-12T07:46:10.157Z,5.87
2019-01-12T07:48:40.077Z,2.20
2019-01-12T07:51:10.489Z,2.33
2019-01-12T07:53:40.393Z,3.43
2019-01-12T07:56:10.300Z,11.23
2019-01-12T07:58:40.537Z,4.30
2019-01-12T08:01:10.462Z,6.30
2019-01-12T08:03:40.538Z,4.23
2019-01-12T08:06:10.642Z,8.23
2019-01-12T08:08:40.866Z,6.83
2019-01-12T08:11:10.769Z,2.20
2019-01-12T08:13:40.767Z,7.83
2019-01-12T08:16:10.866Z,4.47
2019-01-12T08:18:40.754Z,3.57
2019-01-12T08:21:10.715Z,4.43
2019-01-12T08:23:40.901Z,3.53
2019-01-12T08:26:10.809Z,4.40
2019-01-12T08:28:40.981Z,1.70
2019-01-12T08:31:10.894Z,5.07
2019-01-12T08:33:40.752Z,6.27
2019-01-12T08:36:11.124Z,9.37
2019-01-12T08:38:41.366Z,3.10
2019-01-12T08:41:11.227Z,2.80
2019-01-12T08:43:41.230Z,3.80
2019-01-12T08:46:11.155Z,3.50
2019-01-12T08:48:41.041Z,3.70
2019-01-12T08:51:11.018Z,5.57
2019-01-12T08:53:41.473Z,5.10
2019-01-12T08:56:11.488Z,2.83
2019-01-12T08:58:41.428Z,6.87
2019-01-12T09:01:11.705Z,3.67
2019-01-12T09:03:41.539Z,5.37
2019-01-12T09:06:11.413Z,7.00
2019-01-12T09:08:41.543Z,7.10
2019-01-12T09:11:11.420Z,7.00
2019-01-12T09:13:41.322Z,6.10
2019-01-12T09:16:11.435Z,9.30
2019-01-12T09:18:41.372Z,4.03
2019-01-12T09:21:11.280Z,5.70
2019-01-12T09:23:41.575Z,6.83
2019-01-12T09:26:11.458Z,3.57
2019-01-12T09:28:41.425Z,3.00
2019-01-12T09:31:11.626Z,4.03
2019-01-12T09:33:41.520Z,6.33
2019-01-12T09:36:11.432Z,5.73
2019-01-12T09:38:41.660Z,5.83
2019-01-12T09:41:12.012Z,4.67
2019-01-12T09:43:42.321Z,2.13
2019-01-12T09:46:12.351Z,7.37
2019-01-12T09:48:42.285Z,5.90
2019-01-12T09:51:12.477Z,3.00
2019-01-12T09:53:42.429Z,5.83
2019-01-12T09:56:12.651Z,1.20
2019-01-12T09:58:42.753Z,4.63
2019-01-12T10:01:12.680Z,2.97
2019-01-12T10:03:42.523Z,5.70
2019-01-12T10:06:12.794Z,9.73
2019-01-12T10:08:42.717Z,6.33
2019-01-12T10:11:13.226Z,6.57
2019-01-12T10:13:43.081Z,5.60
2019-01-12T10:16:13.066Z,3.70
2019-01-12T10:18:43.290Z,5.43
2019-01-12T10:21:13.200Z,3.67
2019-01-12T10:23:43.221Z,5.87
2019-01-12T10:26:13.943Z,13.70
2019-01-12T10:28:43.854Z,8.47
2019-01-12T10:31:13.782Z,15.97
2019-01-12T10:33:44.131Z,16.37
2019-01-12T10:36:14.396Z,16.43
2019-01-12T10:38:44.318Z,20.70
2019-01-12T10:41:15.390Z,12.90
2019-01-12T10:43:45.326Z,11.20
2019-01-12T10:46:15.487Z,8.67
2019-01-12T10:48:45.877Z,14.80
2019-01-12T10:51:16.038Z,11.73
2019-01-12T10:53:46.295Z,6.53
2019-01-12T10:56:16.654Z,10.63
2019-01-12T10:58:46.608Z,20.23
2019-01-12T11:01:16.869Z,41.90
2019-01-12T11:03:46.761Z,22.83
2019-01-12T11:06:16.745Z,24.20
2019-01-12T11:08:47.543Z,16.20
2019-01-12T11:11:18.827Z,11.03
2019-01-12T11:13:49.114Z,14.37
2019-01-12T11:16:19.115Z,7.57
2019-01-12T11:18:49.003Z,10.43
2019-01-12T11:21:19.386Z,11.27
2019-01-12T11:23:49.297Z,10.30
2019-01-12T11:26:19.443Z,7.73
2019-01-12T11:28:49.720Z,12.73
2019-01-12T11:31:20.028Z,11.03
2019-01-12T11:33:50.501Z,10.07
2019-01-12T11:36:20.461Z,9.80
2019-01-12T11:38:50.425Z,11.00
2019-01-12T11:41:20.950Z,11.63
2019-01-12T11:43:50.816Z,14.67
2019-01-12T11:46:20.762Z,11.70
2019-01-12T11:48:51.003Z,10.40
2019-01-12T11:51:20.856Z,8.53
2019-01-12T11:53:50.800Z,7.13
2019-01-12T11:56:21.276Z,13.27
2019-01-12T11:58:51.141Z,10.97
2019-01-12T12:01:21.046Z,14.10
2019-01-12T12:03:51.538Z,11.73
2019-01-12T12:06:21.450Z,12.87
2019-01-12T12:08:51.361Z,6.13
2019-01-12T12:11:22.000Z,9.33
2019-01-12T12:13:51.890Z,13.87
2019-01-12T12:16:21.852Z,11.83
2019-01-12T12:18:52.143Z,9.77
2019-01-12T12:21:22.104Z,8.87
2019-01-12T12:23:52.016Z,12.53
2019-01-12T12:26:22.204Z,8.83
2019-01-12T12:28:52.125Z,10.90
2019-01-12T12:31:22.082Z,9.63
2019-01-12T12:33:52.127Z,7.77
2019-01-12T12:36:22.006Z,12.83
2019-01-12T12:38:51.957Z,8.87
2019-01-12T12:41:22.298Z,12.67
2019-01-12T12:43:52.176Z,34.20
2019-01-12T12:46:22.083Z,20.33
2019-01-12T12:48:52.240Z,12.53
2019-01-12T12:51:22.140Z,16.50
2019-01-12T12:53:52.065Z,13.70
2019-01-12T12:56:22.412Z,17.53
2019-01-12T12:58:52.641Z,16.10
2019-01-12T13:01:22.674Z,22.37
2019-01-12T13:03:53.052Z,23.50
2019-01-12T13:06:23.072Z,21.07
2019-01-12T13:08:53.016Z,22.27
2019-01-12T13:11:23.424Z,16.73
2019-01-12T13:13:53.772Z,17.20
2019-01-12T13:16:25.374Z,19.83
2019-01-12T13:18:55.243Z,22.67
2019-01-12T13:21:25.220Z,13.93
2019-01-12T13:23:55.366Z,12.47
2019-01-12T13:26:25.255Z,54.07
2019-01-12T13:28:55.427Z,22.90
2019-01-12T13:31:26.964Z,21.17
2019-01-12T13:33:56.895Z,13.97
2019-01-12T13:36:26.793Z,21.63
2019-01-12T13:38:57.004Z,18.27
2019-01-12T13:41:26.904Z,13.00
2019-01-12T13:43:57.058Z,11.73
2019-01-12T13:46:27.381Z,9.67
2019-01-12T13:48:57.278Z,7.50
2019-01-12T13:51:27.162Z,10.53
2019-01-12T13:53:57.671Z,16.03
2019-01-12T13:56:27.527Z,12.60
2019-01-12T13:58:57.876Z,14.37
2019-01-12T14:01:28.311Z,13.73
2019-01-12T14:03:58.163Z,12.33
2019-01-12T14:06:28.042Z,15.27
2019-01-12T14:08:58.263Z,18.97
2019-01-12T14:11:28.150Z,16.57
2019-01-12T14:13:58.110Z,15.67
2019-01-12T14:16:28.534Z,18.50
2019-01-12T14:18:58.395Z,17.90
2019-01-12T14:21:28.312Z,15.37
2019-01-12T14:23:58.667Z,17.43
2019-01-12T14:26:28.562Z,13.63
2019-01-12T14:28:58.632Z,13.33
2019-01-12T14:31:28.719Z,14.23
2019-01-12T14:33:58.657Z,13.93
2019-01-12T14:36:28.517Z,15.07
2019-01-12T14:38:58.665Z,18.57
2019-01-12T14:41:28.588Z,12.83
2019-01-12T14:43:58.537Z,17.97
2019-01-12T14:46:28.831Z,22.13
2019-01-12T14:48:58.762Z,15.83
2019-01-12T14:51:28.761Z,16.00
2019-01-12T14:53:59.106Z,23.13
2019-01-12T14:56:28.939Z,13.93
2019-01-12T14:58:59.259Z,13.70
2019-01-12T15:01:29.140Z,11.10
2019-01-12T15:03:59.133Z,15.40
2019-01-12T15:06:29.412Z,17.30
2019-01-12T15:08:59.302Z,15.60
2019-01-12T15:11:29.166Z,13.40
2019-01-12T15:13:59.328Z,14.53
2019-01-12T15:16:29.322Z,10.73
2019-01-12T15:18:59.235Z,14.60
2019-01-12T15:21:29.208Z,9.27
2019-01-12T15:23:59.154Z,8.90
2019-01-12T15:26:29.099Z,16.53
2019-01-12T15:28:59.064Z,17.33
2019-01-12T15:31:29.062Z,12.80
2019-01-12T15:33:58.976Z,14.17
2019-01-12T15:36:28.961Z,17.53
2019-01-12T15:39:01.740Z,14.17
2019-01-12T15:41:30.759Z,11.47
2019-01-12T15:44:01.001Z,11.60
2019-01-12T15:46:31.314Z,16.57
2019-01-12T15:49:01.238Z,10.37
2019-01-12T15:51:31.108Z,15.33
2019-01-12T15:54:01.263Z,10.00
2019-01-12T15:56:31.157Z,18.27
2019-01-12T15:59:01.016Z,15.30
2019-01-12T16:01:31.822Z,18.80
2019-01-12T16:04:01.792Z,24.80
2019-01-12T16:06:31.698Z,15.53
2019-01-12T16:09:01.984Z,22.23
2019-01-12T16:11:31.909Z,8.40
2019-01-12T16:14:01.769Z,18.23
2019-01-12T16:16:32.392Z,12.30
2019-01-12T16:19:02.293Z,17.40
2019-01-12T16:21:32.137Z,23.83
2019-01-12T16:24:02.290Z,18.90
2019-01-12T16:26:32.230Z,14.23
2019-01-12T16:29:02.124Z,14.07
2019-01-12T16:31:32.459Z,15.67
2019-01-12T16:34:02.330Z,22.97
2019-01-12T16:36:32.255Z,18.30
2019-01-12T16:39:02.413Z,11.73
2019-01-12T16:41:32.283Z,20.67
2019-01-12T16:44:02.196Z,15.70
2019-01-12T16:46:32.491Z,13.10
2019-01-12T16:49:02.390Z,11.57
2019-01-12T16:51:32.231Z,14.33
2019-01-12T16:54:02.611Z,11.97
2019-01-12T16:56:32.545Z,14.43
2019-01-12T16:59:04.814Z,10.03
2019-01-12T17:01:35.121Z,12.30
2019-01-12T17:04:05.211Z,9.50
2019-01-12T17:06:35.094Z,11.30
2019-01-12T17:09:07.525Z,8.27
2019-01-12T17:11:37.507Z,8.90
2019-01-12T17:14:07.434Z,8.23
2019-01-12T17:16:37.686Z,8.90
2019-01-12T17:19:07.580Z,10.67
2019-01-12T17:21:37.455Z,5.53
2019-01-12T17:24:07.639Z,6.37
2019-01-12T17:26:37.557Z,10.30
2019-01-12T17:29:07.631Z,2.97
2019-01-12T17:31:38.215Z,5.37
2019-01-12T17:34:08.068Z,5.17
2019-01-12T17:36:37.943Z,8.43
2019-01-12T17:39:10.907Z,6.67
2019-01-12T17:41:40.793Z,8.20
2019-01-12T17:44:10.713Z,4.00
2019-01-12T17:46:41.283Z,6.53
2019-01-12T17:49:11.193Z,9.10
2019-01-12T17:51:41.085Z,3.83
2019-01-12T17:54:11.231Z,8.37
2019-01-12T17:56:41.091Z,7.63
2019-01-12T17:59:10.971Z,2.77
2019-01-12T18:01:41.594Z,8.60
2019-01-12T18:04:11.455Z,3.37
2019-01-12T18:06:41.388Z,6.60
2019-01-12T18:09:11.425Z,9.77
2019-01-12T18:11:41.269Z,2.00
2019-01-12T18:14:11.163Z,7.17
2019-01-12T18:16:41.494Z,9.50
2019-01-12T18:19:11.367Z,5.27
2019-01-12T18:21:41.270Z,5.47
2019-01-12T18:24:11.360Z,6.60
2019-01-12T18:26:41.194Z,8.93
2019-01-12T18:29:11.096Z,3.67
2019-01-12T18:31:41.413Z,12.63
2019-01-12T18:34:11.271Z,6.27
2019-01-12T18:36:41.143Z,6.93
2019-01-12T18:39:11.178Z,5.37
2019-01-12T18:41:41.045Z,12.80
2019-01-12T18:44:10.968Z,20.80
2019-01-12T18:46:41.189Z,11.63
2019-01-12T18:49:11.070Z,12.80
2019-01-12T18:51:40.966Z,9.60
2019-01-12T18:54:11.016Z,10.70
2019-01-12T18:56:40.926Z,14.80
2019-01-12T18:59:10.786Z,9.37
2019-01-12T19:01:41.011Z,10.27
2019-01-12T19:04:11.189Z,9.83
2019-01-12T19:06:41.100Z,12.53
2019-01-12T19:09:11.377Z,12.40
2019-01-12T19:11:41.263Z,15.57
2019-01-12T19:14:11.107Z,10.60
2019-01-12T19:16:41.314Z,13.93
2019-01-12T19:19:11.491Z,8.63
2019-01-12T19:21:41.421Z,8.80
2019-01-12T19:24:11.775Z,13.63
2019-01-12T19:26:41.611Z,9.90
2019-01-12T19:29:11.500Z,11.93
2019-01-12T19:31:41.731Z,11.03
2019-01-12T19:34:12.030Z,11.80
2019-01-12T19:36:42.378Z,12.80
2019-01-12T19:39:12.367Z,11.30
2019-01-12T19:41:42.238Z,11.87
2019-01-12T19:44:12.525Z,10.67
2019-01-12T19:46:42.506Z,12.63
2019-01-12T19:49:12.714Z,11.20
2019-01-12T19:51:42.780Z,10.27
2019-01-12T19:54:12.812Z,12.60
2019-01-12T19:56:42.752Z,12.67
2019-01-12T19:59:13.812Z,10.60
2019-01-12T20:01:44.058Z,7.53
2019-01-12T20:04:14.533Z,10.27
2019-01-12T20:06:44.422Z,7.77
2019-01-12T20:09:14.518Z,12.13
2019-01-12T20:11:44.793Z,8.87
2019-01-12T20:14:14.710Z,7.10
2019-01-12T20:16:44.606Z,8.93
2019-01-12T20:19:15.035Z,10.10
2019-01-12T20:21:44.904Z,7.83
2019-01-12T20:24:14.841Z,9.73
2019-01-12T20:26:45.104Z,10.47
2019-01-12T20:29:21.054Z,9.47
2019-01-12T20:32:24.659Z,8.67
2019-01-12T20:35:31.183Z,13.17
2019-01-12T20:38:29.099Z,10.40
2019-01-12T20:42:00.925Z,15.00
2019-01-12T20:45:03.652Z,7.40
2019-01-12T20:48:23.424Z,11.53
2019-01-12T20:51:14.981Z,10.47
2019-01-12T20:54:14.744Z,13.17
2019-01-12T20:57:04.237Z,9.47
2019-01-12T21:00:05.217Z,15.23
2019-01-12T21:02:59.689Z,9.83
2019-01-12T21:05:39.019Z,15.83
2019-01-12T21:08:48.678Z,14.03
2019-01-12T21:11:54.569Z,19.57
2019-01-12T21:14:54.632Z,16.00
2019-01-12T21:17:24.656Z,11.10
2019-01-12T21:19:54.512Z,18.90
2019-01-12T21:22:25.012Z,16.00
2019-01-12T21:24:55.334Z,15.13
2019-01-12T21:27:25.205Z,13.70
2019-01-12T21:29:55.785Z,16.97
2019-01-12T21:32:25.621Z,16.60
2019-01-12T21:34:55.545Z,18.30
2019-01-12T21:37:25.596Z,16.60
2019-01-12T21:39:55.747Z,15.03
2019-01-12T21:42:25.626Z,18.13
2019-01-12T21:44:55.995Z,20.60
2019-01-12T21:47:25.871Z,17.93
2019-01-12T21:49:55.734Z,21.27
2019-01-12T21:52:26.166Z,16.10
2019-01-12T21:54:56.679Z,19.57
2019-01-12T21:57:26.511Z,19.90
2019-01-12T21:59:56.550Z,13.30
2019-01-12T22:02:26.471Z,15.17
2019-01-12T22:04:56.465Z,19.50
2019-01-12T22:07:26.878Z,25.47
2019-01-12T22:09:57.148Z,26.27
2019-01-12T22:12:27.038Z,25.87
2019-01-12T22:14:57.106Z,16.23
2019-01-12T22:17:26.965Z,21.27
2019-01-12T22:19:56.843Z,26.07
2019-01-12T22:22:27.200Z,27.90
2019-01-12T22:24:57.605Z,25.20
2019-01-12T22:27:27.582Z,26.43
2019-01-12T22:29:57.909Z,32.30
2019-01-12T22:32:27.946Z,29.13
2019-01-12T22:34:58.050Z,23.20
2019-01-12T22:37:28.139Z,30.50
2019-01-12T22:39:58.260Z,44.43
2019-01-12T22:42:28.121Z,18.40
2019-01-12T22:44:58.594Z,28.17
2019-01-12T22:47:28.516Z,30.30
2019-01-12T22:49:58.375Z,22.23
2019-01-12T22:52:28.746Z,23.97
2019-01-12T22:54:58.962Z,22.77
2019-01-12T22:57:29.490Z,19.03
2019-01-12T22:59:59.547Z,27.83
2019-01-12T23:02:29.643Z,16.67
2019-01-12T23:04:59.760Z,25.20
2019-01-12T23:07:29.664Z,29.40
2019-01-12T23:09:59.892Z,32.67
2019-01-12T23:12:30.026Z,24.10
2019-01-12T23:14:59.990Z,38.80
2019-01-12T23:17:29.911Z,35.77
2019-01-12T23:20:00.005Z,33.93
2019-01-12T23:22:29.948Z,26.20
2019-01-12T23:24:59.976Z,26.77
2019-01-12T23:27:29.916Z,30.37
2019-01-12T23:30:04.325Z,33.50
2019-01-12T23:32:31.488Z,31.93
2019-01-12T23:35:01.394Z,29.40
2019-01-12T23:37:31.325Z,35.17
2019-01-12T23:40:01.475Z,34.47
2019-01-12T23:42:31.342Z,26.37
2019-01-12T23:45:01.287Z,35.23
2019-01-12T23:47:31.491Z,32.67
2019-01-12T23:50:01.680Z,25.10
2019-01-12T23:52:31.680Z,28.90
2019-01-12T23:55:01.928Z,25.20
2019-01-12T23:57:31.911Z,22.97
